Time;durP1;ratioP1;P1;durP2;ratioP2;P2;SDS_P1;SDS_P2;PMS_P1;PMS_P2;Temp;Humidity;BMP_temperature;BMP_pressure;BME280_temperature;BME280_humidity;BME280_pressure;Samples;Min_cycle;Max_cycle;Signal;HPM_P1;HPM_P2
2023/10/08 00:03:05;;;;;;;14.03;5.10;;;;;;;10.80;79.34;99873.48;1700707;84;25704;-63
2023/10/08 00:05:38;;;;;;;12.98;4.67;;;;;;;10.78;79.50;99871.09;1698537;81;25495;-63
2023/10/08 00:08:11;;;;;;;11.60;4.40;;;;;;;10.80;79.41;99867.50;1700705;84;27589;-64
2023/10/08 00:13:15;;;;;;;9.83;4.60;;;;;;;10.81;79.59;99860.98;1681334;85;27341;-64
2023/10/08 00:15:55;;;;;;;14.43;5.28;;;;;;;10.81;80.01;99862.88;1681282;85;25637;-64
2023/10/08 00:18:23;;;;;;;10.95;4.35;;;;;;;10.79;80.02;99863.19;1682278;85;25498;-64
2023/10/08 00:21:16;;;;;;;10.13;4.55;;;;;;;10.79;80.02;99867.82;1682118;85;25643;-64
2023/10/08 00:23:28;;;;;;;13.85;4.90;;;;;;;10.76;80.21;99870.63;1679055;85;25571;-64
2023/10/08 00:25:57;;;;;;;15.05;5.30;;;;;;;10.76;80.23;99855.74;1682121;84;27375;-64
2023/10/08 00:28:28;;;;;;;13.72;4.62;;;;;;;10.77;80.24;99855.17;1681955;84;26051;-64
2023/10/08 00:30:55;;;;;;;19.17;5.10;;;;;;;10.77;80.45;99856.53;1680058;84;25642;-64
2023/10/08 00:33:20;;;;;;;14.53;4.90;;;;;;;10.76;80.51;99853.03;1680440;85;25544;-64
2023/10/08 00:35:47;;;;;;;10.68;4.20;;;;;;;10.77;80.33;99844.36;1682238;84;25411;-64
2023/10/08 00:38:15;;;;;;;15.28;4.95;;;;;;;10.78;80.37;99855.42;1682218;85;27326;-64
2023/10/08 00:40:49;;;;;;;16.48;5.85;;;;;;;10.77;80.55;99863.30;1682012;85;25715;-64
2023/10/08 00:43:37;;;;;;;13.98;5.45;;;;;;;10.76;80.65;99873.86;1682198;84;25430;-64
2023/10/08 00:46:18;;;;;;;12.80;5.37;;;;;;;10.76;80.68;99864.39;1682110;85;25698;-64
2023/10/08 00:48:43;;;;;;;16.62;5.58;;;;;;;10.76;80.82;99861.69;1681084;85;25455;-64
2023/10/08 00:51:25;;;;;;;13.58;5.58;;;;;;;10.75;81.04;99854.14;1681180;85;27238;-65
2023/10/08 00:53:40;;;;;;;12.78;5.53;;;;;;;10.76;80.96;99863.86;1677825;85;25457;-63
2023/10/08 00:56:18;;;;;;;19.55;5.75;;;;;;;10.75;81.02;99835.77;1682193;85;25605;-64
2023/10/08 00:58:48;;;;;;;15.90;6.05;;;;;;;10.75;81.26;99846.59;1681683;85;26428;-64
2023/10/08 01:01:21;;;;;;;15.60;6.17;;;;;;;10.73;81.36;99843.42;1682120;85;25670;-64
2023/10/08 01:03:49;;;;;;;14.30;5.47;;;;;;;10.72;81.29;99842.60;1682095;84;27256;-64
2023/10/08 01:06:20;;;;;;;12.50;5.50;;;;;;;10.72;81.53;99848.02;1682039;85;25586;-64
2023/10/08 01:08:54;;;;;;;10.30;5.20;;;;;;;10.72;81.56;99858.84;1682171;84;25462;-64
2023/10/08 01:11:42;;;;;;;15.68;6.03;;;;;;;10.71;81.73;99852.39;1682032;84;25670;-64
2023/10/08 01:14:00;;;;;;;10.63;5.20;;;;;;;10.70;81.73;99847.55;1679691;85;25563;-64
2023/10/08 01:16:27;;;;;;;13.03;5.55;;;;;;;10.69;81.63;99839.18;1682036;84;27700;-63
2023/10/08 01:18:54;;;;;;;12.18;5.80;;;;;;;10.68;81.89;99855.19;1681997;85;25619;-63
2023/10/08 01:21:34;;;;;;;15.00;4.75;;;;;;;10.68;81.89;99859.81;1682147;85;25636;-64
2023/10/08 01:24:08;;;;;;;13.68;5.72;;;;;;;10.67;82.14;99838.71;1682138;85;26779;-64
2023/10/08 01:26:39;;;;;;;14.70;5.20;;;;;;;10.65;82.10;99826.08;1682103;84;25627;-64
2023/10/08 01:29:21;;;;;;;10.80;5.28;;;;;;;10.64;82.12;99838.00;1682056;85;27384;-64
2023/10/08 01:31:49;;;;;;;12.70;5.15;;;;;;;10.63;82.24;99847.24;1682022;85;25477;-64
2023/10/08 01:34:26;;;;;;;16.17;5.75;;;;;;;10.61;82.33;99843.50;1682122;84;25586;-64
2023/10/08 01:36:48;;;;;;;14.03;5.25;;;;;;;10.59;82.47;99830.05;1681366;85;26244;-64
2023/10/08 01:39:16;;;;;;;13.53;6.08;;;;;;;10.57;82.37;99837.16;1682174;85;25607;-64
2023/10/08 01:41:46;;;;;;;10.85;5.95;;;;;;;10.57;82.41;99826.34;1682140;85;27896;-64
2023/10/08 01:44:14;;;;;;;14.43;5.05;;;;;;;10.56;82.45;99828.01;1682014;84;25489;-64
2023/10/08 01:46:40;;;;;;;16.52;5.65;;;;;;;10.56;82.48;99834.20;1682052;84;25611;-64
2023/10/08 01:49:14;;;;;;;10.20;5.08;;;;;;;10.57;82.58;99844.45;1682033;84;25515;-64
2023/10/08 01:51:38;;;;;;;14.83;6.00;;;;;;;10.57;82.79;99844.45;1681594;85;25705;-64
2023/10/08 01:54:14;;;;;;;14.33;5.22;;;;;;;10.56;83.01;99849.08;1682090;85;27329;-64
2023/10/08 01:56:41;;;;;;;15.53;5.12;;;;;;;10.56;83.11;99859.11;1680307;85;25415;-64
2023/10/08 01:59:15;;;;;;;14.40;5.55;;;;;;;10.56;83.21;99865.87;1682130;85;25403;-64
2023/10/08 02:01:46;;;;;;;10.90;5.65;;;;;;;10.56;83.14;99887.50;1682011;85;26130;-64
2023/10/08 02:04:16;;;;;;;11.25;5.20;;;;;;;10.56;83.35;99887.50;1682214;84;25454;-64
2023/10/08 02:06:42;;;;;;;11.78;5.33;;;;;;;10.54;83.28;99880.24;1682124;85;27358;-64
2023/10/08 02:09:13;;;;;;;9.80;4.87;;;;;;;10.56;83.21;99870.71;1682027;85;25635;-65
2023/10/08 02:11:53;;;;;;;15.60;5.58;;;;;;;10.56;83.27;99872.63;1681818;84;25652;-65
2023/10/08 02:14:23;;;;;;;12.58;5.40;;;;;;;10.54;83.20;99865.37;1683121;85;25625;-65
2023/10/08 02:16:52;;;;;;;;;;;;;;;10.54;83.28;99866.72;1686468;84;25495;-63
2023/10/08 02:19:26;;;;;;;14.23;5.03;;;;;;;10.53;83.23;99877.31;1683779;85;27616;-63
2023/10/08 02:21:48;;;;;;;13.90;5.17;;;;;;;10.51;83.27;99864.11;1681740;85;25615;-63
2023/10/08 02:24:15;;;;;;;10.45;5.35;;;;;;;10.51;83.24;99880.91;1683428;85;25591;-63
2023/10/08 02:26:42;;;;;;;12.23;4.78;;;;;;;10.50;83.23;99882.79;1683135;85;27871;-63
2023/10/08 02:29:11;;;;;;;14.90;5.00;;;;;;;10.49;83.29;99873.11;1683267;84;25207;-63
2023/10/08 02:31:44;;;;;;;9.48;4.33;;;;;;;10.49;83.27;99874.45;1682069;85;28084;-64
2023/10/08 02:34:12;;;;;;;9.93;4.25;;;;;;;10.48;83.13;99880.97;1681982;85;25894;-64
2023/10/08 02:36:42;;;;;;;16.70;5.12;;;;;;;10.50;83.20;99888.77;1682207;85;25461;-64
2023/10/08 02:39:21;;;;;;;12.35;4.83;;;;;;;10.49;83.15;99900.68;1682050;84;25784;-64
2023/10/08 02:41:47;;;;;;;16.00;4.97;;;;;;;10.48;83.08;99908.01;1681702;85;25649;-64
2023/10/08 02:44:18;;;;;;;13.50;5.30;;;;;;;10.49;83.15;99909.61;1682305;85;28007;-63
2023/10/08 02:46:51;;;;;;;9.10;4.75;;;;;;;10.48;83.08;99918.03;1682165;85;25636;-63
2023/10/08 02:49:23;;;;;;;12.03;5.15;;;;;;;10.47;83.06;99932.09;1682252;84;25613;-63
2023/10/08 02:51:58;;;;;;;13.45;4.70;;;;;;;10.45;82.94;99925.67;1682118;85;25636;-63
2023/10/08 02:54:31;;;;;;;11.63;4.17;;;;;;;10.44;82.72;99920.02;1682338;85;25465;-64
2023/10/08 02:57:04;;;;;;;12.23;5.08;;;;;;;10.42;82.56;99924.95;1681126;85;28356;-64
2023/10/08 02:59:40;;;;;;;15.00;4.55;;;;;;;10.42;82.52;99930.36;1681453;85;25953;-63
2023/10/08 03:02:18;;;;;;;12.18;4.17;;;;;;;10.40;82.36;99937.18;1682299;85;25532;-63
2023/10/08 03:04:52;;;;;;;15.10;4.08;;;;;;;10.38;82.26;99925.89;1682163;84;26461;-64
2023/10/08 03:07:21;;;;;;;13.62;4.15;;;;;;;10.37;82.05;99929.69;1682129;84;25449;-64
2023/10/08 03:10:06;;;;;;;11.95;3.55;;;;;;;10.35;81.89;99931.92;1682125;85;27360;-64
2023/10/08 03:12:37;;;;;;;9.05;3.50;;;;;;;10.32;81.69;99931.20;1682119;83;25436;-64
2023/10/08 03:15:13;;;;;;;8.35;3.20;;;;;;;10.29;81.57;99918.53;1682198;85;25586;-64
2023/10/08 03:17:51;;;;;;;8.05;3.55;;;;;;;10.29;81.40;99928.55;1682090;85;26397;-64
2023/10/08 03:23:23;;;;;;;9.88;3.15;;;;;;;10.25;80.96;99943.83;1682309;85;27993;-64
2023/10/08 03:26:02;;;;;;;10.60;3.08;;;;;;;10.22;80.54;99941.18;1682066;85;25489;-64
2023/10/08 03:28:34;;;;;;;6.62;2.98;;;;;;;10.20;80.22;99943.94;1682244;85;25422;-64
2023/10/08 03:31:05;;;;;;;7.33;3.02;;;;;;;10.17;79.98;99941.89;1681422;85;25568;-64
2023/10/08 03:33:38;;;;;;;6.25;2.27;;;;;;;10.13;79.45;99941.73;1682205;85;25414;-64
2023/10/08 03:36:22;;;;;;;6.90;2.22;;;;;;;10.08;79.01;99954.82;1682148;85;27794;-64
2023/10/08 03:38:51;;;;;;;8.60;2.72;;;;;;;10.05;78.94;99962.77;1682170;85;25630;-64
2023/10/08 03:41:28;;;;;;;5.72;2.40;;;;;;;10.04;78.71;99962.51;1682256;84;25486;-64
2023/10/08 03:44:05;;;;;;;5.53;2.15;;;;;;;10.01;78.29;99974.75;1682235;85;25810;-64
2023/10/08 03:46:43;;;;;;;5.40;2.00;;;;;;;9.97;78.03;99967.02;1682275;85;25560;-64
2023/10/08 03:51:53;;;;;;;4.40;1.65;;;;;;;9.94;77.47;99987.89;1682251;85;25434;-63
2023/10/08 03:54:35;;;;;;;3.10;1.62;;;;;;;9.92;77.00;99990.12;1682234;85;25603;-63
2023/10/08 03:57:13;;;;;;;5.10;1.82;;;;;;;9.90;76.86;99999.09;1682249;85;25644;-62
2023/10/08 03:59:40;;;;;;;9.60;1.95;;;;;;;9.87;76.65;100000.50;1681254;85;25454;-63
2023/10/08 04:02:13;;;;;;;4.15;1.40;;;;;;;9.85;76.53;100004.07;1680089;85;27243;-63
2023/10/08 04:04:51;;;;;;;4.42;1.65;;;;;;;9.85;76.31;100010.04;1682048;85;25599;-63
2023/10/08 04:12:44;;;;;;;2.87;1.45;;;;;;;9.73;75.38;100021.41;1682079;84;25621;-63
2023/10/08 04:15:16;;;;;;;3.37;1.70;;;;;;;9.70;75.21;100025.55;1681853;85;28351;-64
2023/10/08 04:17:44;;;;;;;3.95;1.60;;;;;;;9.66;75.07;100019.72;1682160;85;25438;-63
2023/10/08 04:20:32;;;;;;;3.98;1.67;;;;;;;9.62;74.98;100028.17;1682081;84;25409;-63
2023/10/08 04:23:20;;;;;;;4.37;1.62;;;;;;;9.58;74.70;100036.09;1682253;84;25979;-63
2023/10/08 04:25:43;;;;;;;6.17;2.00;;;;;;;9.53;74.68;100038.92;1681477;85;25549;-64
2023/10/08 04:28:17;;;;;;;3.02;1.42;;;;;;;9.49;74.54;100051.45;1682087;85;27326;-64
2023/10/08 04:30:45;;;;;;;2.65;1.70;;;;;;;9.46;74.61;100055.55;1681483;85;25530;-64
2023/10/08 04:33:15;;;;;;;6.95;1.77;;;;;;;9.46;74.56;100062.30;1682163;84;25637;-64
2023/10/08 04:35:55;;;;;;;2.65;1.27;;;;;;;9.45;74.36;100063.95;1682089;84;25822;-63
2023/10/08 04:38:36;;;;;;;2.87;1.30;;;;;;;9.41;73.94;100073.22;1682060;84;25459;-64
2023/10/08 04:41:02;;;;;;;3.20;1.80;;;;;;;9.37;73.81;100066.06;1681466;85;27329;-64
2023/10/08 04:43:37;;;;;;;3.30;1.40;;;;;;;9.33;73.85;100077.47;1680207;84;25645;-64
2023/10/08 04:48:33;;;;;;;2.12;1.37;;;;;;;9.27;73.47;100079.23;1597289;89;25805;-63
2023/10/08 04:51:02;;;;;;;2.85;1.30;;;;;;;9.23;73.31;100080.93;1597456;89;25743;-63
2023/10/08 04:53:40;;;;;;;3.12;1.52;;;;;;;9.18;73.19;100085.91;1597428;89;27796;-63
2023/10/08 04:56:19;;;;;;;5.85;1.65;;;;;;;9.14;73.01;100091.13;1597308;89;25673;-63
2023/10/08 04:58:47;;;;;;;3.77;1.37;;;;;;;9.10;73.09;100096.86;1596416;89;25659;-63
2023/10/08 05:09:22;;;;;;;2.95;1.57;;;;;;;8.91;72.67;100109.70;1597376;89;25485;-64
2023/10/08 05:17:10;;;;;;;2.52;1.30;;;;;;;8.75;72.60;100115.41;1597441;89;25480;-63
2023/10/08 05:20:01;;;;;;;3.67;1.10;;;;;;;8.71;72.63;100119.79;1597572;89;27367;-63
2023/10/08 05:22:29;;;;;;;;;;;;;;;8.68;72.51;100124.98;1596687;89;25613;-64
2023/10/08 05:30:37;;;;;;;4.60;1.40;;;;;;;8.55;72.46;100141.43;1682163;85;25576;-63
2023/10/08 05:35:48;;;;;;;3.37;1.40;;;;;;;8.51;72.53;100147.15;1597441;89;25715;-63
2023/10/08 05:38:13;;;;;;;2.90;1.10;;;;;;;8.50;72.53;100151.75;1597268;89;25518;-63
2023/10/08 05:41:04;;;;;;;1.27;0.95;;;;;;;8.51;72.58;100156.59;1597321;89;25736;-63
2023/10/08 05:43:14;;;;;;;3.10;1.32;;;;;;;8.48;72.48;100162.04;1597180;89;25688;-64
2023/10/08 05:45:34;;;;;;;2.58;1.10;;;;;;;8.48;72.50;100170.13;1597336;89;27986;-64
2023/10/08 05:48:12;;;;;;;5.83;1.10;;;;;;;8.47;72.52;100170.42;1597300;89;25571;-64
2023/10/08 05:50:55;;;;;;;4.05;1.55;;;;;;;8.47;72.51;100180.64;1597323;89;25632;-64
2023/10/08 05:53:30;;;;;;;2.35;1.20;;;;;;;8.48;72.53;100188.99;1597297;89;26213;-64
2023/10/08 05:56:01;;;;;;;4.03;1.22;;;;;;;8.49;72.60;100190.58;1597445;89;32814;-64
2023/10/08 06:01:08;;;;;;;4.30;1.87;;;;;;;8.53;72.73;100207.77;1597464;89;25694;-64
2023/10/08 06:03:59;;;;;;;2.50;1.35;;;;;;;8.56;72.42;100209.06;1597320;89;25986;-63
2023/10/08 06:08:52;;;;;;;3.42;1.20;;;;;;;8.61;71.97;100217.05;1597410;89;25553;-63
2023/10/08 06:14:36;;;;;;;1.47;1.00;;;;;;;8.69;71.94;100230.41;1650398;85;25445;-63
2023/10/08 06:17:01;;;;;;;4.35;1.20;;;;;;;8.73;71.77;100222.76;1650762;86;25641;-63
2023/10/08 06:19:14;;;;;;;1.85;0.88;;;;;;;8.81;71.72;100232.06;1651552;86;25579;-63
2023/10/08 06:21:45;;;;;;;2.25;1.27;;;;;;;8.93;71.81;100239.67;1631897;86;25539;-63
2023/10/08 06:24:16;;;;;;;1.30;0.98;;;;;;;9.08;71.86;100238.59;1654177;86;26746;-63
2023/10/08 06:26:48;;;;;;;3.45;1.00;;;;;;;9.27;71.89;100254.67;1652013;86;25507;-63
2023/10/08 06:29:26;;;;;;;2.72;1.15;;;;;;;9.49;71.50;100261.48;1651689;86;25362;-64
2023/10/08 06:31:51;;;;;;;2.05;1.07;;;;;;;9.69;71.40;100262.96;1651676;86;25628;-64
2023/10/08 06:34:22;;;;;;;4.40;1.17;;;;;;;9.94;70.95;100266.19;1652251;86;25603;-64
2023/10/08 06:36:53;;;;;;;4.03;1.20;;;;;;;10.19;70.37;100267.50;1654254;86;28537;-64
2023/10/08 06:39:33;;;;;;;5.12;1.90;;;;;;;10.40;70.31;100275.97;1653987;86;25746;-64
2023/10/08 06:41:58;;;;;;;3.17;1.77;;;;;;;10.68;69.68;100287.98;1653401;86;25660;-63
2023/10/08 06:44:24;;;;;;;3.05;1.30;;;;;;;10.87;67.62;100281.00;1657671;85;25648;-63
2023/10/08 06:46:54;;;;;;;4.92;1.22;;;;;;;10.94;67.18;100286.76;1682315;85;25417;-64
2023/10/08 06:49:24;;;;;;;3.12;1.30;;;;;;;11.12;67.30;100289.00;1680105;84;28007;-64
2023/10/08 06:51:53;;;;;;;1.55;1.05;;;;;;;11.32;66.72;100298.48;1682205;85;25624;-64
2023/10/08 06:54:20;;;;;;;;;;;;;;;11.52;66.17;100305.20;1686103;85;25256;-63
2023/10/08 06:56:51;;;;;;;2.12;0.88;;;;;;;11.78;65.24;100308.53;1683944;83;25830;-62
2023/10/08 06:59:17;;;;;;;4.00;1.07;;;;;;;11.98;64.11;100317.20;1681957;85;25671;-63
2023/10/08 07:01:46;;;;;;;1.90;1.00;;;;;;;12.17;62.83;100308.19;1683329;85;27184;-62
2023/10/08 07:04:15;;;;;;;1.07;0.72;;;;;;;12.39;62.64;100323.50;1682306;85;25588;-63
2023/10/08 07:06:43;;;;;;;4.17;2.95;;;;;;;12.52;60.72;100313.61;1682298;84;25456;-64
2023/10/08 07:11:57;;;;;;;2.30;1.00;;;;;;;12.97;61.28;100343.04;1682293;85;25474;-64
2023/10/08 07:14:28;;;;;;;2.83;1.00;;;;;;;13.29;60.38;100344.16;1697717;83;27692;-65
2023/10/08 07:17:00;;;;;;;1.30;0.85;;;;;;;13.53;58.42;100336.80;1700844;84;25555;-64
2023/10/08 07:19:39;;;;;;;1.25;0.82;;;;;;;13.66;57.67;100339.84;1700944;84;25630;-64
2023/10/08 07:22:28;;;;;;;2.22;0.85;;;;;;;13.84;56.74;100348.68;1700980;84;34790;-65
2023/10/08 07:24:51;;;;;;;1.15;0.65;;;;;;;14.22;55.66;100343.72;1699038;84;25632;-64
2023/10/08 07:27:24;;;;;;;3.35;1.22;;;;;;;14.71;55.60;100345.32;1700855;84;27225;-64
2023/10/08 07:29:55;;;;;;;2.77;0.90;;;;;;;15.11;55.16;100358.34;1700793;84;25784;-65
2023/10/08 07:32:22;;;;;;;1.17;0.80;;;;;;;15.45;54.75;100362.37;1700686;84;25406;-64
2023/10/08 07:34:57;;;;;;;1.67;1.07;;;;;;;15.75;53.68;100367.06;1700903;84;26374;-64
2023/10/08 07:37:16;;;;;;;1.20;0.70;;;;;;;15.96;51.79;100359.31;1699544;84;25624;-64
2023/10/08 07:39:47;;;;;;;2.52;0.82;;;;;;;16.05;50.03;100368.93;1700939;84;27713;-63
2023/10/08 07:42:16;;;;;;;1.35;0.60;;;;;;;16.08;51.16;100385.77;1700883;84;26023;-62
2023/10/08 07:44:42;;;;;;;4.33;0.78;;;;;;;16.38;50.69;100395.83;1700948;84;25450;-64
2023/10/08 07:47:11;;;;;;;1.55;0.80;;;;;;;16.66;49.55;100382.76;1700910;84;25691;-64
2023/10/08 07:49:42;;;;;;;;;;;;;;;16.85;49.25;100383.50;1703406;84;25613;-64
2023/10/08 07:52:15;;;;;;;0.93;0.60;;;;;;;17.00;48.26;100389.56;1700915;84;28045;-64
2023/10/08 07:54:40;;;;;;;3.55;1.00;;;;;;;17.14;45.83;100383.09;1699667;83;25452;-64
2023/10/08 07:57:10;;;;;;;1.72;1.00;;;;;;;17.23;47.84;100398.53;1700929;84;25440;-65
2023/10/08 07:59:46;;;;;;;3.80;0.80;;;;;;;17.36;46.51;100398.09;1700949;84;25634;-64
2023/10/08 08:02:17;;;;;;;1.42;0.68;;;;;;;17.48;46.17;100400.53;1700941;84;25472;-66
2023/10/08 08:04:50;;;;;;;1.07;0.60;;;;;;;17.59;44.97;100390.66;1700879;84;27667;-63
2023/10/08 08:07:24;;;;;;;3.00;1.02;;;;;;;17.66;44.66;100396.30;1700819;84;25461;-64
2023/10/08 08:10:00;;;;;;;2.62;0.60;;;;;;;17.80;45.14;100403.25;1700860;84;25437;-64
2023/10/08 08:12:32;;;;;;;1.90;0.70;;;;;;;17.91;44.31;100402.94;1700842;84;25606;-64
2023/10/08 08:14:58;;;;;;;1.55;0.70;;;;;;;18.11;44.76;100414.73;1700849;84;25385;-64
2023/10/08 08:17:24;;;;;;;1.42;0.72;;;;;;;18.37;44.17;100407.30;1700851;84;27324;-64
2023/10/08 08:19:52;;;;;;;1.45;0.95;;;;;;;18.57;43.31;100410.03;1700756;84;25990;-64
2023/10/08 08:22:21;;;;;;;1.80;1.00;;;;;;;18.68;43.17;100419.27;1700850;84;25404;-65
2023/10/08 08:24:56;;;;;;;1.50;0.80;;;;;;;18.89;42.62;100423.03;1701090;84;25629;-64
2023/10/08 08:27:31;;;;;;;6.47;1.32;;;;;;;19.05;41.61;100429.78;1700372;84;25565;-64
2023/10/08 08:29:55;;;;;;;3.15;1.50;;;;;;;19.07;41.13;100432.16;1700176;84;27263;-65
2023/10/08 08:32:23;;;;;;;2.65;1.10;;;;;;;19.27;41.41;100444.67;1700782;84;25550;-64
2023/10/08 08:34:50;;;;;;;2.42;1.40;;;;;;;19.44;40.69;100438.51;1700843;84;25571;-64
2023/10/08 08:37:17;;;;;;;3.60;1.72;;;;;;;19.65;41.10;100432.58;1700841;84;26264;-65
2023/10/08 08:39:45;;;;;;;6.22;3.12;;;;;;;19.84;39.60;100429.01;1700865;84;25430;-64
2023/10/08 08:42:13;;;;;;;7.05;4.40;;;;;;;19.90;39.33;100431.08;1700839;84;27228;-64
2023/10/08 08:44:46;;;;;;;10.70;6.10;;;;;;;19.86;38.92;100432.95;1700800;84;25485;-64
2023/10/08 08:47:19;;;;;;;7.50;4.12;;;;;;;19.94;38.55;100436.03;1700862;84;25452;-64
2023/10/08 08:49:46;;;;;;;3.65;2.83;;;;;;;20.00;38.30;100441.20;1700814;84;26560;-64
2023/10/08 08:52:14;;;;;;;3.30;1.30;;;;;;;20.18;38.64;100446.38;1674888;84;25639;-64
2023/10/08 08:54:44;;;;;;;2.00;1.22;;;;;;;20.59;38.80;100447.12;1700853;84;27356;-64
2023/10/08 08:57:14;;;;;;;1.52;1.00;;;;;;;20.96;38.18;100436.77;1700781;84;25636;-64
2023/10/08 08:59:46;;;;;;;1.00;0.62;;;;;;;21.25;37.78;100449.66;1700834;84;25554;-65
2023/10/08 09:02:15;;;;;;;2.12;0.90;;;;;;;21.55;36.39;100447.98;1700808;84;25624;-63
2023/10/08 09:04:41;;;;;;;4.42;0.88;;;;;;;21.54;35.85;100456.02;1700968;84;25667;-65
2023/10/08 09:07:08;;;;;;;1.10;0.70;;;;;;;21.64;35.76;100463.02;1673646;84;27948;-64
2023/10/08 09:09:44;;;;;;;3.08;1.00;;;;;;;21.79;35.74;100465.30;1700705;84;25403;-66
2023/10/08 09:12:10;;;;;;;27.00;22.27;;;;;;;21.93;35.51;100454.17;1700833;84;25417;-68
2023/10/08 09:14:41;;;;;;;6.95;5.55;;;;;;;21.98;34.35;100457.37;1700737;83;25977;-69
2023/10/08 09:17:07;;;;;;;1.37;1.10;;;;;;;21.98;34.33;100469.77;1700873;84;25608;-68
2023/10/08 09:19:38;;;;;;;2.05;0.88;;;;;;;22.10;34.31;100470.61;1700800;84;27916;-67
2023/10/08 09:22:08;;;;;;;3.62;1.35;;;;;;;22.28;34.15;100468.02;1700728;84;25676;-66
2023/10/08 09:24:37;;;;;;;3.37;1.70;;;;;;;22.45;33.03;100461.02;1700168;84;25497;-69
2023/10/08 09:27:18;;;;;;;2.42;0.95;;;;;;;22.52;33.42;100458.30;1700906;84;25651;-69
2023/10/08 09:29:47;;;;;;;4.22;0.57;;;;;;;22.74;33.29;100466.85;1700841;84;25677;-68
2023/10/08 09:32:23;;;;;;;1.85;0.75;;;;;;;22.89;32.84;100466.33;1700966;84;27705;-67
2023/10/08 09:34:47;;;;;;;1.45;0.72;;;;;;;23.06;32.91;100473.11;1700361;84;25627;-68
2023/10/08 09:37:14;;;;;;;2.08;0.80;;;;;;;23.22;32.12;100467.82;1700852;84;25409;-69
2023/10/08 09:39:45;;;;;;;1.95;0.80;;;;;;;23.29;31.57;100480.25;1674826;84;25673;-69
2023/10/08 09:42:13;;;;;;;1.20;0.88;;;;;;;23.49;32.25;100482.83;1700896;84;25648;-72
2023/10/08 09:44:40;;;;;;;2.45;0.80;;;;;;;23.74;31.73;100486.22;1700930;84;26954;-69
2023/10/08 09:47:10;;;;;;;1.25;0.68;;;;;;;23.83;30.76;100485.84;1700731;84;25552;-66
2023/10/08 09:49:46;;;;;;;2.65;1.02;;;;;;;23.66;30.57;100494.30;1700779;84;25562;-62
2023/10/08 09:52:16;;;;;;;1.65;0.88;;;;;;;23.57;29.82;100501.59;1699576;84;25626;-65
2023/10/08 09:54:57;;;;;;;2.35;0.90;;;;;;;23.31;30.54;100492.48;1700829;84;25567;-66
2023/10/08 09:57:26;;;;;;;2.83;1.12;;;;;;;23.32;29.65;100491.88;1700219;84;27330;-68
2023/10/08 09:59:53;;;;;;;0.90;0.60;;;;;;;23.15;30.38;100502.30;1700924;84;25394;-65
2023/10/08 10:02:26;;;;;;;0.80;0.80;;;;;;;23.44;30.50;100498.41;1700792;84;25618;-64
2023/10/08 10:04:54;;;;;;;2.37;0.70;;;;;;;23.31;29.73;100492.48;1700554;84;25733;-63
2023/10/08 10:07:22;;;;;;;2.33;0.80;;;;;;;23.20;30.19;100496.40;1700947;84;25405;-58
2023/10/08 10:09:55;;;;;;;1.20;0.72;;;;;;;23.20;29.76;100504.08;1700784;84;27382;-63
2023/10/08 10:12:25;;;;;;;2.45;0.75;;;;;;;23.18;29.90;100492.64;1700737;84;25844;-63
2023/10/08 10:14:57;;;;;;;3.00;1.50;;;;;;;23.31;29.66;100495.84;1689882;84;25660;-63
2023/10/08 10:17:27;;;;;;;11.08;5.50;;;;;;;23.35;29.63;100510.42;1682125;85;25628;-66
2023/10/08 10:19:59;;;;;;;1.70;1.20;;;;;;;23.38;29.47;100508.84;1682162;85;25379;-64
2023/10/08 10:22:36;;;;;;;3.25;1.02;;;;;;;23.37;28.44;100510.81;1682162;85;27430;-58
2023/10/08 10:25:14;;;;;;;1.60;0.70;;;;;;;23.18;29.05;100505.06;1682032;85;25635;-58
2023/10/08 10:27:34;;;;;;;1.75;1.00;;;;;;;23.49;29.48;100502.76;1680708;85;25382;-58
2023/10/08 10:30:10;;;;;;;2.02;0.75;;;;;;;23.72;29.17;100512.63;1682324;85;26192;-68
2023/10/08 10:32:36;;;;;;;5.53;4.90;;;;;;;23.83;28.80;100503.80;1680943;85;25465;-68
2023/10/08 10:35:05;;;;;;;3.62;3.22;;;;;;;23.94;28.46;100519.79;1681867;84;28074;-68
2023/10/08 10:37:41;;;;;;;5.20;3.60;;;;;;;23.76;27.52;100515.60;1682076;85;25466;-66
2023/10/08 10:40:12;;;;;;;8.23;7.47;;;;;;;23.74;28.19;100502.78;1682170;85;25473;-67
2023/10/08 10:42:47;;;;;;;2.58;1.40;;;;;;;24.12;28.63;100503.78;1682114;85;25616;-67
2023/10/08 10:45:40;;;;;;;3.25;1.00;;;;;;;24.50;28.77;100509.05;1682624;84;25618;-68
2023/10/08 10:47:46;;;;;;;1.40;1.30;;;;;;;24.95;27.92;100500.22;1677238;85;27327;-67
2023/10/08 10:50:33;;;;;;;3.22;0.90;;;;;;;25.07;27.79;100504.52;1681021;85;25664;-62
2023/10/08 10:52:53;;;;;;;0.93;0.60;;;;;;;25.15;26.84;100501.30;1670335;85;26094;-64
2023/10/08 10:55:21;;;;;;;1.95;0.70;;;;;;;25.14;26.65;100494.78;1681220;85;25692;-63
2023/10/08 10:58:11;;;;;;;1.90;0.90;;;;;;;25.00;26.13;100501.78;1681131;84;25704;-64
2023/10/08 11:03:02;;;;;;;2.37;0.72;;;;;;;24.82;26.11;100524.77;1682050;84;25762;-64
2023/10/08 11:05:36;;;;;;;3.27;0.68;;;;;;;24.47;25.63;100513.19;1682256;84;25589;-63
2023/10/08 11:08:05;;;;;;;1.95;1.10;;;;;;;24.26;25.58;100520.34;1681766;85;26560;-64
2023/10/08 11:10:33;;;;;;;1.55;0.88;;;;;;;23.84;25.63;100514.45;1682264;85;25567;-66
2023/10/08 11:13:01;;;;;;;2.50;0.80;;;;;;;23.75;25.74;100518.75;1682378;85;33135;-63
2023/10/08 11:15:40;;;;;;;2.52;0.88;;;;;;;23.54;26.11;100521.69;1682110;83;25623;-69
2023/10/08 11:18:17;;;;;;;1.92;0.72;;;;;;;23.30;26.33;100511.59;1682542;84;25575;-65
2023/10/08 11:20:44;;;;;;;2.05;0.88;;;;;;;23.17;26.00;100511.75;1682238;84;26111;-65
2023/10/08 11:23:33;;;;;;;0.93;0.80;;;;;;;23.10;25.85;100513.92;1682283;85;25407;-64
2023/10/08 11:26:03;;;;;;;7.67;1.75;;;;;;;22.92;26.20;100516.58;1682208;85;27726;-63
2023/10/08 11:28:43;;;;;;;1.20;0.90;;;;;;;23.03;27.19;100522.72;1682169;85;25419;-64
2023/10/08 11:31:19;;;;;;;1.70;0.80;;;;;;;23.19;26.92;100525.97;1682255;85;25415;-62
2023/10/08 11:33:56;;;;;;;7.00;0.75;;;;;;;23.34;26.18;100523.23;1682197;84;25706;-62
2023/10/08 11:36:27;;;;;;;2.25;1.05;;;;;;;23.35;26.02;100511.80;1682419;84;25403;-63
2023/10/08 11:39:07;;;;;;;1.95;0.65;;;;;;;23.53;26.60;100518.75;1682293;84;27316;-65
2023/10/08 11:41:52;;;;;;;1.27;0.75;;;;;;;24.00;26.20;100514.65;1681847;85;25644;-63
2023/10/08 11:44:19;;;;;;;2.92;1.50;;;;;;;23.95;25.77;100524.11;1627694;87;25654;-61
2023/10/08 11:46:51;;;;;;;3.67;0.90;;;;;;;23.98;25.68;100519.19;1627604;88;25728;-65
2023/10/08 11:49:25;;;;;;;3.10;0.55;;;;;;;24.26;25.77;100520.34;1646737;87;25381;-70
2023/10/08 11:51:48;;;;;;;2.05;0.68;;;;;;;24.21;25.44;100522.92;1646106;87;27352;-68
2023/10/08 11:54:15;;;;;;;3.77;0.60;;;;;;;24.06;24.19;100519.98;1646801;87;25475;-66
2023/10/08 11:56:44;;;;;;;1.20;0.50;;;;;;;23.88;24.54;100521.96;1647020;87;25639;-70
2023/10/08 11:59:11;;;;;;;1.22;0.78;;;;;;;23.73;24.06;100519.75;1648628;87;25648;-68
2023/10/08 12:01:42;;;;;;;2.25;0.78;;;;;;;23.64;24.63;100534.72;1648681;87;25198;-65
2023/10/08 12:04:12;;;;;;;14.63;11.45;;;;;;;23.69;24.57;100528.03;1648725;87;27404;-65
2023/10/08 12:06:46;;;;;;;3.98;3.58;;;;;;;23.07;23.94;100534.00;1648459;87;25255;-64
2023/10/08 12:09:12;;;;;;;2.58;1.00;;;;;;;22.74;24.02;100523.38;1647083;87;25468;-60
2023/10/08 12:11:40;;;;;;;3.95;0.70;;;;;;;22.55;24.39;100539.63;1646697;87;26471;-61
2023/10/08 12:14:07;;;;;;;2.20;0.82;;;;;;;21.90;24.28;100545.82;1646696;87;25555;-62
2023/10/08 12:16:39;;;;;;;1.98;0.60;;;;;;;21.75;25.02;100533.29;1650633;86;28402;-65
2023/10/08 12:19:15;;;;;;;3.65;0.57;;;;;;;21.73;24.94;100529.34;1650778;86;25516;-64
2023/10/08 12:21:36;;;;;;;2.22;0.72;;;;;;;21.88;25.29;100526.11;1669070;85;25605;-66
2023/10/08 12:24:05;;;;;;;1.57;0.93;;;;;;;21.74;24.76;100529.53;1689086;84;26588;-63
2023/10/08 12:26:31;;;;;;;2.90;0.98;;;;;;;21.22;25.26;100532.92;1675336;85;25650;-63
2023/10/08 12:28:58;;;;;;;0.95;0.78;;;;;;;21.16;25.59;100535.78;1692884;84;27330;-64
2023/10/08 12:31:24;;;;;;;3.35;1.75;;;;;;;20.87;25.06;100534.66;1688960;84;25693;-63
2023/10/08 12:34:00;;;;;;;1.95;1.05;;;;;;;20.51;24.95;100548.66;1689146;84;25398;-64
2023/10/08 12:36:32;;;;;;;1.70;0.75;;;;;;;20.10;25.21;100547.65;1675419;85;25970;-64
2023/10/08 12:39:00;;;;;;;5.80;3.45;;;;;;;20.10;25.53;100542.94;1692723;84;25552;-64
2023/10/08 12:41:28;;;;;;;3.22;1.50;;;;;;;20.33;25.62;100541.55;1689163;84;27654;-63